createdAt,value
2022-09-23T00:04:53.670Z,101171.66
2022-09-23T00:09:58.851Z,101163.69
2022-09-23T00:15:02.427Z,101159.53
2022-09-23T00:20:06.767Z,101161.97
2022-09-23T00:25:13.088Z,101156.63
2022-09-23T00:30:16.614Z,101158.31
2022-09-23T00:35:20.408Z,101157.59
2022-09-23T00:40:25.660Z,101160.16
2022-09-23T00:45:30.487Z,101156.13
2022-09-23T00:50:34.868Z,101161.81
2022-09-23T00:55:43.279Z,101158.25
2022-09-23T01:00:46.943Z,101164.31
2022-09-23T01:05:50.934Z,101150.81
2022-09-23T01:11:05.329Z,101171.84
2022-09-23T01:16:16.725Z,101162.47
2022-09-23T01:21:31.223Z,101158.66
2022-09-23T01:27:06.431Z,101162.06
2022-09-23T01:32:18.874Z,101155.34
2022-09-23T01:37:27.082Z,101158.69
2022-09-23T01:42:36.975Z,101169.47
2022-09-23T01:47:47.854Z,101158.88
2022-09-23T01:52:56.129Z,101157.38
2022-09-23T01:58:05.729Z,101154.84
2022-09-23T02:03:16.225Z,101150.34
2022-09-23T02:08:25.133Z,101159.56
2022-09-23T02:13:32.582Z,101157.19
2022-09-23T02:18:45.082Z,101150.59
2022-09-23T02:23:53.140Z,101154.22
2022-09-23T02:29:07.451Z,101162.34
2022-09-23T02:34:33.555Z,101171.63
2022-09-23T02:39:43.038Z,101167.03
2022-09-23T02:44:46.646Z,101170.94
2022-09-23T02:49:52.018Z,101172.41
2022-09-23T02:54:55.638Z,101168.03
2022-09-23T02:59:59.311Z,101174.69
2022-09-23T03:05:12.286Z,101167.88
2022-09-23T03:10:21.787Z,101174.88
2022-09-23T03:15:34.180Z,101165.41
2022-09-23T03:20:44.896Z,101173.31
2022-09-23T03:25:51.030Z,101177.41
2022-09-23T03:30:55.522Z,101185.16
2022-09-23T03:36:05.355Z,101191.38
2022-09-23T03:41:11.927Z,101188.59
2022-09-23T03:46:15.523Z,101197.16
2022-09-23T03:51:24.141Z,101181.38
2022-09-23T03:56:27.678Z,101201.19
2022-09-23T04:01:31.229Z,101209.81
2022-09-23T04:06:36.585Z,101208.34
2022-09-23T04:11:40.132Z,101199.38
2022-09-23T04:16:43.692Z,101210.47
2022-09-23T04:21:49.326Z,101206.94
2022-09-23T04:26:53.845Z,101205.50
2022-09-23T04:31:57.487Z,101205.47
2022-09-23T04:37:03.070Z,101203.22
2022-09-23T04:42:06.870Z,101203.19
2022-09-23T04:47:10.409Z,101203.53
2022-09-23T04:52:15.571Z,101200.34
2022-09-23T04:57:19.110Z,101208.22
2022-09-23T05:02:22.730Z,101198.84
2022-09-23T05:07:28.579Z,101204.31
2022-09-23T05:12:32.152Z,101191.94
2022-09-23T05:17:35.697Z,101194.44
2022-09-23T05:22:40.882Z,101184.63
2022-09-23T05:27:44.425Z,101182.88
2022-09-23T05:32:47.930Z,101181.38
2022-09-23T05:37:53.075Z,101177.25
2022-09-23T05:42:56.609Z,101185.97
2022-09-23T05:48:00.152Z,101185.25
2022-09-23T05:53:05.346Z,101179.28
2022-09-23T05:58:08.874Z,101181.66
2022-09-23T06:03:14.427Z,101180.81
2022-09-23T06:08:19.766Z,101176.09
2022-09-23T06:13:23.311Z,101169.22
2022-09-23T06:18:26.841Z,101176.53
2022-09-23T06:23:32.376Z,101180.47
2022-09-23T06:28:38.039Z,101172.28
2022-09-23T06:33:40.819Z,101167.75
2022-09-23T06:38:46.008Z,101159.56
2022-09-23T06:43:49.721Z,101161.34
2022-09-23T06:48:53.222Z,101154.72
2022-09-23T06:53:58.428Z,101162.00
2022-09-23T06:59:01.990Z,101153.84
2022-09-23T07:04:05.707Z,101155.94
2022-09-23T07:09:11.741Z,101150.91
2022-09-23T07:14:15.568Z,101154.69
2022-09-23T07:19:19.103Z,101152.06
2022-09-23T07:24:25.243Z,101149.69
2022-09-23T07:29:31.247Z,101148.72
2022-09-23T07:34:38.609Z,101142.56
2022-09-23T07:39:44.563Z,101138.84
2022-09-23T07:44:48.133Z,101142.56
2022-09-23T07:49:51.705Z,101147.19
2022-09-23T07:54:57.867Z,101141.53
2022-09-23T08:00:01.438Z,101150.50
2022-09-23T08:05:05.270Z,101155.97
2022-09-23T08:10:10.986Z,101164.06
2022-09-23T08:15:13.765Z,101162.38
2022-09-23T08:20:18.181Z,101165.03
2022-09-23T08:25:23.343Z,101169.81
2022-09-23T08:30:27.657Z,101182.16
2022-09-23T08:35:31.248Z,101176.66
2022-09-23T08:40:39.771Z,101173.66
2022-09-23T08:45:45.615Z,101177.22
2022-09-23T08:50:54.205Z,101177.59
2022-09-23T08:56:01.922Z,101178.44
2022-09-23T09:01:17.322Z,101183.56
2022-09-23T09:06:27.015Z,101179.38
2022-09-23T09:11:36.662Z,101178.81
2022-09-23T09:17:00.066Z,101192.22
2022-09-23T09:22:08.391Z,101186.78
2022-09-23T09:27:14.561Z,101184.94
2022-09-23T09:32:26.558Z,101181.94
2022-09-23T09:37:35.296Z,101176.50
2022-09-23T09:42:41.851Z,101173.53
2022-09-23T09:47:52.364Z,101172.28
2022-09-23T09:53:17.211Z,101175.59
2022-09-23T09:58:22.628Z,101172.06
2022-09-23T10:03:40.102Z,101170.16
2022-09-23T10:08:49.981Z,101165.94
2022-09-23T10:14:06.529Z,101166.09
2022-09-23T10:19:18.133Z,101167.78
2022-09-23T10:24:24.127Z,101165.72
2022-09-23T10:29:33.808Z,101158.44
2022-09-23T10:34:37.323Z,101165.09
2022-09-23T10:39:41.599Z,101161.09
2022-09-23T10:45:02.325Z,101166.44
2022-09-23T10:50:36.329Z,101169.22
2022-09-23T10:56:05.367Z,101167.88
2022-09-23T11:01:27.956Z,101167.69
2022-09-23T11:06:38.296Z,101159.97
2022-09-23T11:11:52.956Z,101165.03
2022-09-23T11:17:27.982Z,101152.91
2022-09-23T11:22:50.479Z,101159.81
2022-09-23T11:28:18.653Z,101151.88
2022-09-23T11:33:42.450Z,101154.28
2022-09-23T11:38:50.395Z,101158.56
2022-09-23T11:44:00.123Z,101151.16
2022-09-23T11:49:13.079Z,101151.66
2022-09-23T11:54:21.461Z,101156.06
2022-09-23T11:59:40.001Z,101169.75
2022-09-23T12:04:57.214Z,101158.47
2022-09-23T12:10:06.134Z,101155.66
2022-09-23T12:15:18.346Z,101153.53
2022-09-23T12:20:51.229Z,101152.03
2022-09-23T12:25:56.798Z,101148.88
2022-09-23T12:31:02.833Z,101153.78
2022-09-23T12:36:10.566Z,101148.47
2022-09-23T12:41:24.968Z,101152.06
2022-09-23T12:46:28.931Z,101159.06
2022-09-23T12:51:34.863Z,101158.47
2022-09-23T12:57:01.468Z,101153.69
2022-09-23T13:02:29.508Z,101162.59
2022-09-23T13:07:34.972Z,101169.84
2022-09-23T13:12:43.438Z,101174.69
2022-09-23T13:17:47.028Z,101172.88
2022-09-23T13:23:22.493Z,101176.13
2022-09-23T13:28:34.003Z,101169.09
2022-09-23T13:33:43.562Z,101182.63
2022-09-23T13:38:48.760Z,101172.38
2022-09-23T13:43:55.398Z,101174.19
2022-09-23T13:48:59.438Z,101184.69
2022-09-23T13:54:05.910Z,101191.19
2022-09-23T13:59:23.465Z,101186.34
2022-09-23T14:04:27.462Z,101185.03
2022-09-23T14:09:34.578Z,101196.91
2022-09-23T14:14:41.507Z,101188.13
2022-09-23T14:19:45.346Z,101193.88
2022-09-23T14:24:51.119Z,101186.06
2022-09-23T14:29:55.088Z,101201.56
2022-09-23T14:35:18.597Z,101195.41
2022-09-23T14:40:26.617Z,101198.03
2022-09-23T14:45:34.539Z,101208.97
2022-09-23T14:50:38.462Z,101203.22
2022-09-23T14:55:44.784Z,101210.28
2022-09-23T15:00:54.110Z,101223.47
2022-09-23T15:06:01.615Z,101214.97
2022-09-23T15:11:09.574Z,101206.75
2022-09-23T15:16:15.238Z,101212.47
2022-09-23T15:21:20.823Z,101213.91
2022-09-23T15:26:40.467Z,101205.34
2022-09-23T15:31:44.050Z,101214.19
2022-09-23T15:36:47.979Z,101233.44
2022-09-23T15:41:53.421Z,101232.06
2022-09-23T15:46:58.559Z,101234.75
2022-09-23T15:52:04.085Z,101238.56
2022-09-23T15:57:09.488Z,101245.03
2022-09-23T16:02:20.607Z,101257.84
2022-09-23T16:07:24.139Z,101259.50
2022-09-23T16:12:29.339Z,101253.75
2022-09-23T16:17:32.860Z,101263.63
2022-09-23T16:22:36.752Z,101247.13
2022-09-23T16:27:41.951Z,101250.31
2022-09-23T16:32:51.760Z,101254.44
2022-09-23T16:37:55.488Z,101261.91
2022-09-23T16:43:00.660Z,101272.50
2022-09-23T16:48:03.557Z,101274.47
2022-09-23T16:53:07.169Z,101258.53
2022-09-23T16:58:12.521Z,101261.94
2022-09-23T17:03:16.076Z,101263.41
2022-09-23T17:08:19.761Z,101266.94
2022-09-23T17:13:25.026Z,101268.16
2022-09-23T17:18:28.787Z,101265.00
2022-09-23T17:23:33.286Z,101266.91
2022-09-23T17:28:38.478Z,101266.28
2022-09-23T17:33:42.010Z,101261.16
2022-09-23T17:38:46.190Z,101263.56
2022-09-23T17:43:55.344Z,101253.88
2022-09-23T17:48:59.262Z,101251.50
2022-09-23T17:54:02.807Z,101263.03
2022-09-23T17:59:10.695Z,101241.97
2022-09-23T18:04:14.322Z,101242.16
2022-09-23T18:09:18.220Z,101228.06
2022-09-23T18:14:23.964Z,101225.28
2022-09-23T18:19:27.529Z,101223.69
2022-09-23T18:24:33.091Z,101223.69
2022-09-23T18:29:38.874Z,101212.75
2022-09-23T18:34:42.428Z,101212.63
2022-09-23T18:39:45.977Z,101209.78
2022-09-23T18:44:51.206Z,101203.66
2022-09-23T18:49:54.733Z,101205.59
2022-09-23T18:54:58.259Z,101210.31
2022-09-23T19:00:03.989Z,101195.59
2022-09-23T19:05:08.482Z,101189.13
2022-09-23T19:10:11.352Z,101184.75
2022-09-23T19:15:16.653Z,101181.25
2022-09-23T19:20:20.156Z,101174.06
2022-09-23T19:25:23.684Z,101166.81
2022-09-23T19:30:28.865Z,101159.72
2022-09-23T19:35:32.436Z,101157.81
2022-09-23T19:40:36.477Z,101157.34
2022-09-23T19:45:41.772Z,101152.63
2022-09-23T19:50:47.927Z,101151.22
2022-09-23T19:55:51.450Z,101143.13
2022-09-23T20:00:56.672Z,101144.81
2022-09-23T20:06:00.275Z,101126.38
2022-09-23T20:11:08.462Z,101123.25
2022-09-23T20:16:15.780Z,101122.44
2022-09-23T20:21:19.502Z,101109.41
2022-09-23T20:26:23.087Z,101106.00
2022-09-23T20:31:28.977Z,101108.50
2022-09-23T20:36:32.607Z,101094.97
2022-09-23T20:41:37.766Z,101090.19
2022-09-23T20:46:47.935Z,101086.19
2022-09-23T20:51:52.281Z,101075.72
2022-09-23T20:56:55.806Z,101071.22
2022-09-23T21:02:03.213Z,101065.28
2022-09-23T21:07:06.791Z,101056.53
2022-09-23T21:12:10.305Z,101045.91
2022-09-23T21:17:15.470Z,101039.31
2022-09-23T21:22:19.010Z,101022.91
2022-09-23T21:27:22.516Z,101016.47
2022-09-23T21:32:27.691Z,101013.00
2022-09-23T21:37:31.227Z,101005.34
2022-09-23T21:42:34.742Z,101003.53
2022-09-23T21:47:40.876Z,101002.09
2022-09-23T21:52:44.492Z,100999.34
2022-09-23T21:57:48.040Z,100986.13
2022-09-23T22:02:53.211Z,100990.03
2022-09-23T22:07:56.758Z,100989.44
2022-09-23T22:13:00.300Z,100981.91
2022-09-23T22:18:05.652Z,100971.47
2022-09-23T22:23:09.154Z,100968.06
2022-09-23T22:28:12.694Z,100964.00
2022-09-23T22:33:19.242Z,100957.44
2022-09-23T22:38:22.767Z,100960.84
2022-09-23T22:43:26.336Z,100948.53
2022-09-23T22:48:31.831Z,100949.00
2022-09-23T22:53:35.349Z,100939.59
2022-09-23T22:58:38.865Z,100944.44
2022-09-23T23:03:44.049Z,100937.34
2022-09-23T23:08:47.613Z,100941.22
2022-09-23T23:13:51.463Z,100932.56
2022-09-23T23:18:56.708Z,100922.72
2022-09-23T23:24:00.698Z,100927.38
2022-09-23T23:29:03.516Z,100916.41
2022-09-23T23:34:11.601Z,100925.28
2022-09-23T23:39:15.514Z,100911.91
2022-09-23T23:44:19.033Z,100909.38
2022-09-23T23:49:24.218Z,100908.97
2022-09-23T23:54:27.887Z,100898.19
2022-09-23T23:59:31.459Z,100903.06
